sensor_id;sensor_type;location;lat;lon;timestamp;P1;durP1;ratioP1;P2;durP2;ratioP2
26377;SDS011;14078;50.974;6.786;2022-07-21T00:00:26;5.55;;;4.82;;
26377;SDS011;14078;50.974;6.786;2022-07-21T00:02:53;8.23;;;5.57;;
26377;SDS011;14078;50.974;6.786;2022-07-21T00:05:21;6.07;;;4.65;;
26377;SDS011;14078;50.974;6.786;2022-07-21T00:07:49;10.38;;;5.55;;
26377;SDS011;14078;50.974;6.786;2022-07-21T00:10:17;6.93;;;4.95;;
26377;SDS011;14078;50.974;6.786;2022-07-21T00:12:45;5.40;;;4.63;;
26377;SDS011;14078;50.974;6.786;2022-07-21T00:15:13;6.38;;;4.78;;
26377;SDS011;14078;50.974;6.786;2022-07-21T00:17:41;8.50;;;4.75;;
26377;SDS011;14078;50.974;6.786;2022-07-21T00:20:09;6.22;;;5.25;;
26377;SDS011;14078;50.974;6.786;2022-07-21T00:22:37;9.05;;;4.70;;
26377;SDS011;14078;50.974;6.786;2022-07-21T00:25:04;7.80;;;4.97;;
26377;SDS011;14078;50.974;6.786;2022-07-21T00:27:33;9.48;;;5.55;;
26377;SDS011;14078;50.974;6.786;2022-07-21T00:30:00;7.70;;;5.05;;
26377;SDS011;14078;50.974;6.786;2022-07-21T00:32:26;7.35;;;4.80;;
26377;SDS011;14078;50.974;6.786;2022-07-21T00:34:53;7.32;;;4.53;;
26377;SDS011;14078;50.974;6.786;2022-07-21T00:37:20;5.65;;;5.13;;
26377;SDS011;14078;50.974;6.786;2022-07-21T00:39:49;6.35;;;4.90;;
26377;SDS011;14078;50.974;6.786;2022-07-21T00:42:21;7.05;;;4.70;;
26377;SDS011;14078;50.974;6.786;2022-07-21T00:44:50;4.95;;;3.95;;
26377;SDS011;14078;50.974;6.786;2022-07-21T00:47:18;5.10;;;4.60;;
26377;SDS011;14078;50.974;6.786;2022-07-21T00:49:45;5.65;;;4.55;;
26377;SDS011;14078;50.974;6.786;2022-07-21T00:52:12;8.80;;;5.03;;
26377;SDS011;14078;50.974;6.786;2022-07-21T00:54:39;5.32;;;4.45;;
26377;SDS011;14078;50.974;6.786;2022-07-21T00:57:06;8.32;;;5.43;;
26377;SDS011;14078;50.974;6.786;2022-07-21T00:59:33;6.93;;;5.63;;
26377;SDS011;14078;50.974;6.786;2022-07-21T01:02:01;10.43;;;5.68;;
26377;SDS011;14078;50.974;6.786;2022-07-21T01:04:28;7.47;;;5.78;;
26377;SDS011;14078;50.974;6.786;2022-07-21T01:06:55;8.10;;;5.78;;
26377;SDS011;14078;50.974;6.786;2022-07-21T01:09:23;7.85;;;6.07;;
26377;SDS011;14078;50.974;6.786;2022-07-21T01:11:49;8.45;;;5.50;;
26377;SDS011;14078;50.974;6.786;2022-07-21T01:14:16;8.75;;;6.25;;
26377;SDS011;14078;50.974;6.786;2022-07-21T01:16:43;7.28;;;5.57;;
26377;SDS011;14078;50.974;6.786;2022-07-21T01:19:12;8.68;;;5.97;;
26377;SDS011;14078;50.974;6.786;2022-07-21T01:21:41;9.20;;;5.95;;
26377;SDS011;14078;50.974;6.786;2022-07-21T01:24:09;9.10;;;5.80;;
26377;SDS011;14078;50.974;6.786;2022-07-21T01:26:40;12.35;;;6.47;;
26377;SDS011;14078;50.974;6.786;2022-07-21T01:29:07;7.07;;;5.25;;
26377;SDS011;14078;50.974;6.786;2022-07-21T01:31:35;8.88;;;6.07;;
26377;SDS011;14078;50.974;6.786;2022-07-21T01:34:02;7.25;;;5.90;;
26377;SDS011;14078;50.974;6.786;2022-07-21T01:36:29;7.63;;;5.63;;
26377;SDS011;14078;50.974;6.786;2022-07-21T01:38:58;10.23;;;6.40;;
26377;SDS011;14078;50.974;6.786;2022-07-21T01:41:42;9.38;;;6.78;;
26377;SDS011;14078;50.974;6.786;2022-07-21T01:44:10;8.48;;;5.50;;
26377;SDS011;14078;50.974;6.786;2022-07-21T01:46:38;7.90;;;6.40;;
26377;SDS011;14078;50.974;6.786;2022-07-21T01:51:33;6.65;;;5.70;;
26377;SDS011;14078;50.974;6.786;2022-07-21T01:54:02;6.85;;;6.10;;
26377;SDS011;14078;50.974;6.786;2022-07-21T01:56:28;8.20;;;5.97;;
26377;SDS011;14078;50.974;6.786;2022-07-21T01:58:56;6.97;;;6.15;;
26377;SDS011;14078;50.974;6.786;2022-07-21T02:01:24;8.65;;;6.20;;
26377;SDS011;14078;50.974;6.786;2022-07-21T02:03:53;9.35;;;7.43;;
26377;SDS011;14078;50.974;6.786;2022-07-21T02:06:22;9.37;;;6.80;;
26377;SDS011;14078;50.974;6.786;2022-07-21T02:08:49;12.13;;;7.72;;
26377;SDS011;14078;50.974;6.786;2022-07-21T02:11:17;11.95;;;7.05;;
26377;SDS011;14078;50.974;6.786;2022-07-21T02:13:44;9.80;;;6.93;;
26377;SDS011;14078;50.974;6.786;2022-07-21T02:16:12;13.65;;;7.30;;
26377;SDS011;14078;50.974;6.786;2022-07-21T02:18:39;12.63;;;7.25;;
26377;SDS011;14078;50.974;6.786;2022-07-21T02:21:06;15.48;;;7.50;;
26377;SDS011;14078;50.974;6.786;2022-07-21T02:23:33;11.77;;;7.68;;
26377;SDS011;14078;50.974;6.786;2022-07-21T02:26:00;14.45;;;7.30;;
26377;SDS011;14078;50.974;6.786;2022-07-21T02:28:28;11.88;;;7.25;;
26377;SDS011;14078;50.974;6.786;2022-07-21T02:30:55;11.80;;;7.55;;
26377;SDS011;14078;50.974;6.786;2022-07-21T02:33:22;11.98;;;7.97;;
26377;SDS011;14078;50.974;6.786;2022-07-21T02:35:48;11.88;;;8.43;;
26377;SDS011;14078;50.974;6.786;2022-07-21T02:38:15;9.95;;;7.93;;
26377;SDS011;14078;50.974;6.786;2022-07-21T02:40:42;10.93;;;7.65;;
26377;SDS011;14078;50.974;6.786;2022-07-21T02:43:08;11.85;;;6.78;;
26377;SDS011;14078;50.974;6.786;2022-07-21T02:45:36;9.60;;;7.22;;
26377;SDS011;14078;50.974;6.786;2022-07-21T02:48:05;9.07;;;6.50;;
26377;SDS011;14078;50.974;6.786;2022-07-21T02:50:34;10.60;;;6.45;;
26377;SDS011;14078;50.974;6.786;2022-07-21T02:53:03;7.30;;;5.90;;
26377;SDS011;14078;50.974;6.786;2022-07-21T02:55:31;9.98;;;7.13;;
26377;SDS011;14078;50.974;6.786;2022-07-21T02:58:08;6.97;;;5.53;;
26377;SDS011;14078;50.974;6.786;2022-07-21T03:00:38;6.90;;;5.47;;
26377;SDS011;14078;50.974;6.786;2022-07-21T03:03:06;6.75;;;5.53;;
26377;SDS011;14078;50.974;6.786;2022-07-21T03:05:35;9.52;;;6.18;;
26377;SDS011;14078;50.974;6.786;2022-07-21T03:08:02;8.02;;;5.80;;
26377;SDS011;14078;50.974;6.786;2022-07-21T03:10:30;9.55;;;6.03;;
26377;SDS011;14078;50.974;6.786;2022-07-21T03:12:57;8.13;;;6.40;;
26377;SDS011;14078;50.974;6.786;2022-07-21T03:15:24;6.90;;;5.82;;
26377;SDS011;14078;50.974;6.786;2022-07-21T03:17:53;7.78;;;5.80;;
26377;SDS011;14078;50.974;6.786;2022-07-21T03:20:21;7.00;;;5.55;;
26377;SDS011;14078;50.974;6.786;2022-07-21T03:22:48;10.88;;;6.10;;
26377;SDS011;14078;50.974;6.786;2022-07-21T03:25:15;8.23;;;5.70;;
26377;SDS011;14078;50.974;6.786;2022-07-21T03:27:42;10.20;;;6.50;;
26377;SDS011;14078;50.974;6.786;2022-07-21T03:30:09;6.70;;;5.70;;
26377;SDS011;14078;50.974;6.786;2022-07-21T03:32:36;7.55;;;5.88;;
26377;SDS011;14078;50.974;6.786;2022-07-21T03:35:06;7.07;;;5.78;;
26377;SDS011;14078;50.974;6.786;2022-07-21T03:37:39;8.02;;;5.38;;
26377;SDS011;14078;50.974;6.786;2022-07-21T03:40:06;10.23;;;6.35;;
26377;SDS011;14078;50.974;6.786;2022-07-21T03:42:34;7.03;;;5.57;;
26377;SDS011;14078;50.974;6.786;2022-07-21T03:45:00;9.70;;;5.60;;
26377;SDS011;14078;50.974;6.786;2022-07-21T03:47:27;9.77;;;6.25;;
26377;SDS011;14078;50.974;6.786;2022-07-21T03:49:54;12.48;;;6.18;;
26377;SDS011;14078;50.974;6.786;2022-07-21T03:52:22;8.13;;;5.50;;
26377;SDS011;14078;50.974;6.786;2022-07-21T03:54:49;7.95;;;5.45;;
26377;SDS011;14078;50.974;6.786;2022-07-21T03:57:32;6.30;;;5.18;;
26377;SDS011;14078;50.974;6.786;2022-07-21T04:00:00;9.02;;;5.10;;
26377;SDS011;14078;50.974;6.786;2022-07-21T04:02:27;8.95;;;5.60;;
26377;SDS011;14078;50.974;6.786;2022-07-21T04:04:54;5.80;;;4.75;;
26377;SDS011;14078;50.974;6.786;2022-07-21T04:07:22;6.15;;;4.53;;
26377;SDS011;14078;50.974;6.786;2022-07-21T04:09:49;6.18;;;5.57;;
26377;SDS011;14078;50.974;6.786;2022-07-21T04:12:15;6.07;;;4.22;;
26377;SDS011;14078;50.974;6.786;2022-07-21T04:14:42;10.63;;;5.25;;
26377;SDS011;14078;50.974;6.786;2022-07-21T04:17:09;6.90;;;5.10;;
26377;SDS011;14078;50.974;6.786;2022-07-21T04:19:36;6.47;;;4.85;;
26377;SDS011;14078;50.974;6.786;2022-07-21T04:22:02;8.65;;;5.07;;
26377;SDS011;14078;50.974;6.786;2022-07-21T04:24:30;5.90;;;4.72;;
26377;SDS011;14078;50.974;6.786;2022-07-21T04:26:57;6.47;;;4.60;;
26377;SDS011;14078;50.974;6.786;2022-07-21T04:29:24;6.13;;;4.53;;
26377;SDS011;14078;50.974;6.786;2022-07-21T04:31:50;6.10;;;4.90;;
26377;SDS011;14078;50.974;6.786;2022-07-21T04:34:17;6.00;;;4.97;;
26377;SDS011;14078;50.974;6.786;2022-07-21T04:36:44;7.07;;;4.78;;
26377;SDS011;14078;50.974;6.786;2022-07-21T04:39:10;8.38;;;4.60;;
26377;SDS011;14078;50.974;6.786;2022-07-21T04:41:38;6.20;;;4.97;;
26377;SDS011;14078;50.974;6.786;2022-07-21T04:44:05;5.68;;;4.72;;
26377;SDS011;14078;50.974;6.786;2022-07-21T04:46:32;7.50;;;5.20;;
26377;SDS011;14078;50.974;6.786;2022-07-21T04:48:58;5.78;;;5.15;;
26377;SDS011;14078;50.974;6.786;2022-07-21T04:51:25;7.40;;;5.05;;
26377;SDS011;14078;50.974;6.786;2022-07-21T04:53:52;6.53;;;4.75;;
26377;SDS011;14078;50.974;6.786;2022-07-21T04:56:19;5.80;;;4.15;;
26377;SDS011;14078;50.974;6.786;2022-07-21T04:58:47;5.72;;;4.05;;
26377;SDS011;14078;50.974;6.786;2022-07-21T05:01:13;5.85;;;5.20;;
26377;SDS011;14078;50.974;6.786;2022-07-21T05:03:42;7.38;;;4.95;;
26377;SDS011;14078;50.974;6.786;2022-07-21T05:06:10;4.97;;;4.45;;
26377;SDS011;14078;50.974;6.786;2022-07-21T05:08:37;5.55;;;4.45;;
26377;SDS011;14078;50.974;6.786;2022-07-21T05:11:03;4.88;;;4.15;;
26377;SDS011;14078;50.974;6.786;2022-07-21T05:13:30;8.00;;;4.63;;
26377;SDS011;14078;50.974;6.786;2022-07-21T05:15:58;5.35;;;4.55;;
26377;SDS011;14078;50.974;6.786;2022-07-21T05:18:25;5.43;;;4.45;;
26377;SDS011;14078;50.974;6.786;2022-07-21T05:20:52;5.00;;;4.28;;
26377;SDS011;14078;50.974;6.786;2022-07-21T05:23:18;4.82;;;4.32;;
26377;SDS011;14078;50.974;6.786;2022-07-21T05:25:45;5.45;;;4.18;;
26377;SDS011;14078;50.974;6.786;2022-07-21T05:28:12;6.07;;;5.00;;
26377;SDS011;14078;50.974;6.786;2022-07-21T05:30:38;7.53;;;4.45;;
26377;SDS011;14078;50.974;6.786;2022-07-21T05:33:06;4.72;;;4.18;;
26377;SDS011;14078;50.974;6.786;2022-07-21T05:35:33;7.43;;;4.18;;
26377;SDS011;14078;50.974;6.786;2022-07-21T05:38:00;5.72;;;4.68;;
26377;SDS011;14078;50.974;6.786;2022-07-21T05:40:27;6.03;;;4.20;;
26377;SDS011;14078;50.974;6.786;2022-07-21T05:42:53;4.55;;;4.15;;
26377;SDS011;14078;50.974;6.786;2022-07-21T05:45:20;5.18;;;4.68;;
26377;SDS011;14078;50.974;6.786;2022-07-21T05:47:47;5.82;;;4.22;;
26377;SDS011;14078;50.974;6.786;2022-07-21T05:50:15;6.15;;;4.43;;
26377;SDS011;14078;50.974;6.786;2022-07-21T05:52:41;6.50;;;4.43;;
26377;SDS011;14078;50.974;6.786;2022-07-21T05:55:09;4.28;;;3.85;;
26377;SDS011;14078;50.974;6.786;2022-07-21T05:57:36;8.55;;;5.35;;
26377;SDS011;14078;50.974;6.786;2022-07-21T06:00:03;5.45;;;4.63;;
26377;SDS011;14078;50.974;6.786;2022-07-21T06:02:31;6.70;;;4.72;;
26377;SDS011;14078;50.974;6.786;2022-07-21T06:04:58;5.80;;;4.97;;
26377;SDS011;14078;50.974;6.786;2022-07-21T06:07:26;7.35;;;5.13;;
26377;SDS011;14078;50.974;6.786;2022-07-21T06:09:53;5.18;;;4.43;;
26377;SDS011;14078;50.974;6.786;2022-07-21T06:12:20;8.45;;;4.88;;
26377;SDS011;14078;50.974;6.786;2022-07-21T06:14:47;5.22;;;4.45;;
26377;SDS011;14078;50.974;6.786;2022-07-21T06:17:14;6.10;;;4.45;;
26377;SDS011;14078;50.974;6.786;2022-07-21T06:19:41;5.43;;;4.40;;
26377;SDS011;14078;50.974;6.786;2022-07-21T06:22:07;7.45;;;4.97;;
26377;SDS011;14078;50.974;6.786;2022-07-21T06:24:35;5.47;;;4.85;;
26377;SDS011;14078;50.974;6.786;2022-07-21T06:27:02;4.70;;;4.10;;
26377;SDS011;14078;50.974;6.786;2022-07-21T06:29:29;7.05;;;3.75;;
26377;SDS011;14078;50.974;6.786;2022-07-21T06:31:56;7.30;;;4.28;;
26377;SDS011;14078;50.974;6.786;2022-07-21T06:34:23;5.90;;;3.47;;
26377;SDS011;14078;50.974;6.786;2022-07-21T06:36:49;3.85;;;3.03;;
26377;SDS011;14078;50.974;6.786;2022-07-21T06:39:16;4.75;;;2.35;;
26377;SDS011;14078;50.974;6.786;2022-07-21T06:41:44;2.78;;;2.42;;
26377;SDS011;14078;50.974;6.786;2022-07-21T06:44:11;2.33;;;2.13;;
26377;SDS011;14078;50.974;6.786;2022-07-21T06:46:38;4.63;;;2.63;;
26377;SDS011;14078;50.974;6.786;2022-07-21T06:49:04;3.58;;;2.08;;
26377;SDS011;14078;50.974;6.786;2022-07-21T06:51:31;2.33;;;1.70;;
26377;SDS011;14078;50.974;6.786;2022-07-21T06:53:58;2.25;;;2.03;;
26377;SDS011;14078;50.974;6.786;2022-07-21T06:56:24;2.85;;;2.22;;
26377;SDS011;14078;50.974;6.786;2022-07-21T06:58:52;2.88;;;1.73;;
26377;SDS011;14078;50.974;6.786;2022-07-21T07:01:19;1.88;;;1.70;;
26377;SDS011;14078;50.974;6.786;2022-07-21T07:03:46;2.63;;;2.03;;
26377;SDS011;14078;50.974;6.786;2022-07-21T07:06:13;2.42;;;1.98;;
26377;SDS011;14078;50.974;6.786;2022-07-21T07:08:40;2.83;;;1.85;;
26377;SDS011;14078;50.974;6.786;2022-07-21T07:11:06;2.40;;;1.88;;
26377;SDS011;14078;50.974;6.786;2022-07-21T07:13:33;2.13;;;1.73;;
26377;SDS011;14078;50.974;6.786;2022-07-21T07:16:01;2.30;;;1.70;;
26377;SDS011;14078;50.974;6.786;2022-07-21T07:18:28;3.13;;;2.30;;
26377;SDS011;14078;50.974;6.786;2022-07-21T07:20:55;3.33;;;2.25;;
26377;SDS011;14078;50.974;6.786;2022-07-21T07:23:21;3.28;;;2.60;;
26377;SDS011;14078;50.974;6.786;2022-07-21T07:25:48;3.15;;;2.80;;
26377;SDS011;14078;50.974;6.786;2022-07-21T07:28:15;5.95;;;2.60;;
26377;SDS011;14078;50.974;6.786;2022-07-21T07:30:42;2.55;;;2.20;;
26377;SDS011;14078;50.974;6.786;2022-07-21T07:33:10;3.90;;;2.72;;
26377;SDS011;14078;50.974;6.786;2022-07-21T07:35:36;4.55;;;3.47;;
26377;SDS011;14078;50.974;6.786;2022-07-21T07:38:03;2.38;;;2.17;;
26377;SDS011;14078;50.974;6.786;2022-07-21T07:40:30;2.80;;;2.22;;
26377;SDS011;14078;50.974;6.786;2022-07-21T07:42:57;5.10;;;2.53;;
26377;SDS011;14078;50.974;6.786;2022-07-21T07:45:23;5.90;;;2.95;;
26377;SDS011;14078;50.974;6.786;2022-07-21T07:47:51;3.00;;;2.38;;
26377;SDS011;14078;50.974;6.786;2022-07-21T07:50:19;2.78;;;2.33;;
26377;SDS011;14078;50.974;6.786;2022-07-21T07:52:46;4.95;;;2.90;;
26377;SDS011;14078;50.974;6.786;2022-07-21T07:55:13;5.15;;;3.22;;
26377;SDS011;14078;50.974;6.786;2022-07-21T07:57:41;5.50;;;4.40;;
26377;SDS011;14078;50.974;6.786;2022-07-21T08:00:09;3.20;;;2.90;;
26377;SDS011;14078;50.974;6.786;2022-07-21T08:02:37;3.65;;;3.33;;
26377;SDS011;14078;50.974;6.786;2022-07-21T08:05:05;3.85;;;3.25;;
26377;SDS011;14078;50.974;6.786;2022-07-21T08:07:34;5.88;;;3.50;;
26377;SDS011;14078;50.974;6.786;2022-07-21T08:10:03;4.13;;;3.72;;
26377;SDS011;14078;50.974;6.786;2022-07-21T08:12:30;3.83;;;3.22;;
26377;SDS011;14078;50.974;6.786;2022-07-21T08:14:57;4.85;;;3.58;;
26377;SDS011;14078;50.974;6.786;2022-07-21T08:17:24;3.75;;;2.90;;
26377;SDS011;14078;50.974;6.786;2022-07-21T08:19:50;4.68;;;3.80;;
26377;SDS011;14078;50.974;6.786;2022-07-21T08:22:17;5.20;;;4.30;;
26377;SDS011;14078;50.974;6.786;2022-07-21T08:24:45;5.97;;;5.35;;
26377;SDS011;14078;50.974;6.786;2022-07-21T08:27:12;4.78;;;3.95;;
26377;SDS011;14078;50.974;6.786;2022-07-21T08:29:39;5.03;;;4.53;;
26377;SDS011;14078;50.974;6.786;2022-07-21T08:32:06;7.72;;;4.38;;
26377;SDS011;14078;50.974;6.786;2022-07-21T08:34:33;6.30;;;4.50;;
26377;SDS011;14078;50.974;6.786;2022-07-21T08:36:59;4.65;;;4.22;;
26377;SDS011;14078;50.974;6.786;2022-07-21T08:39:26;5.25;;;4.70;;
26377;SDS011;14078;50.974;6.786;2022-07-21T08:41:54;5.55;;;4.82;;
26377;SDS011;14078;50.974;6.786;2022-07-21T08:44:21;6.28;;;4.70;;
26377;SDS011;14078;50.974;6.786;2022-07-21T08:46:49;6.35;;;5.15;;
26377;SDS011;14078;50.974;6.786;2022-07-21T08:49:18;6.57;;;5.77;;
26377;SDS011;14078;50.974;6.786;2022-07-21T08:51:46;6.88;;;4.43;;
26377;SDS011;14078;50.974;6.786;2022-07-21T08:54:13;5.57;;;4.85;;
26377;SDS011;14078;50.974;6.786;2022-07-21T08:56:40;5.35;;;4.47;;
26377;SDS011;14078;50.974;6.786;2022-07-21T08:59:08;5.13;;;4.20;;
26377;SDS011;14078;50.974;6.786;2022-07-21T09:01:35;6.35;;;3.72;;
26377;SDS011;14078;50.974;6.786;2022-07-21T09:06:53;4.10;;;3.67;;
26377;SDS011;14078;50.974;6.786;2022-07-21T09:09:22;4.20;;;3.33;;
26377;SDS011;14078;50.974;6.786;2022-07-21T09:11:50;4.57;;;2.60;;
26377;SDS011;14078;50.974;6.786;2022-07-21T09:14:20;3.20;;;2.45;;
26377;SDS011;14078;50.974;6.786;2022-07-21T09:16:51;3.08;;;2.42;;
26377;SDS011;14078;50.974;6.786;2022-07-21T09:19:20;3.03;;;2.40;;
26377;SDS011;14078;50.974;6.786;2022-07-21T09:21:48;5.20;;;2.50;;
26377;SDS011;14078;50.974;6.786;2022-07-21T09:24:17;3.85;;;2.53;;
26377;SDS011;14078;50.974;6.786;2022-07-21T09:26:56;2.92;;;2.53;;
26377;SDS011;14078;50.974;6.786;2022-07-21T09:29:34;2.95;;;2.70;;
26377;SDS011;14078;50.974;6.786;2022-07-21T09:32:11;2.88;;;2.67;;
26377;SDS011;14078;50.974;6.786;2022-07-21T09:34:50;2.88;;;2.55;;
26377;SDS011;14078;50.974;6.786;2022-07-21T09:39:47;2.80;;;2.55;;
26377;SDS011;14078;50.974;6.786;2022-07-21T09:42:16;3.47;;;2.92;;
26377;SDS011;14078;50.974;6.786;2022-07-21T09:44:46;4.97;;;3.15;;
26377;SDS011;14078;50.974;6.786;2022-07-21T09:47:15;4.25;;;3.08;;
26377;SDS011;14078;50.974;6.786;2022-07-21T09:49:43;3.90;;;3.10;;
26377;SDS011;14078;50.974;6.786;2022-07-21T09:52:23;4.25;;;2.83;;
26377;SDS011;14078;50.974;6.786;2022-07-21T09:54:52;3.65;;;3.10;;
26377;SDS011;14078;50.974;6.786;2022-07-21T09:57:20;3.47;;;2.50;;
26377;SDS011;14078;50.974;6.786;2022-07-21T09:59:49;2.90;;;2.63;;
26377;SDS011;14078;50.974;6.786;2022-07-21T10:02:17;4.45;;;2.95;;
26377;SDS011;14078;50.974;6.786;2022-07-21T10:07:14;3.30;;;2.67;;
26377;SDS011;14078;50.974;6.786;2022-07-21T10:09:42;3.75;;;2.90;;
26377;SDS011;14078;50.974;6.786;2022-07-21T10:12:09;2.63;;;2.42;;
26377;SDS011;14078;50.974;6.786;2022-07-21T10:14:36;2.45;;;2.10;;
26377;SDS011;14078;50.974;6.786;2022-07-21T10:17:04;5.38;;;2.97;;
26377;SDS011;14078;50.974;6.786;2022-07-21T10:19:34;3.00;;;2.55;;
26377;SDS011;14078;50.974;6.786;2022-07-21T10:22:07;4.13;;;2.97;;
26377;SDS011;14078;50.974;6.786;2022-07-21T10:24:42;4.03;;;2.80;;
26377;SDS011;14078;50.974;6.786;2022-07-21T10:27:09;3.13;;;2.83;;
26377;SDS011;14078;50.974;6.786;2022-07-21T10:29:53;2.80;;;2.40;;
26377;SDS011;14078;50.974;6.786;2022-07-21T10:32:23;3.25;;;2.70;;
26377;SDS011;14078;50.974;6.786;2022-07-21T10:34:52;3.35;;;2.97;;
26377;SDS011;14078;50.974;6.786;2022-07-21T10:49:05;5.18;;;3.78;;
26377;SDS011;14078;50.974;6.786;2022-07-21T10:51:34;6.90;;;4.28;;
26377;SDS011;14078;50.974;6.786;2022-07-21T11:02:41;6.03;;;4.40;;
26377;SDS011;14078;50.974;6.786;2022-07-21T11:05:10;4.60;;;3.60;;
26377;SDS011;14078;50.974;6.786;2022-07-21T11:10:36;5.50;;;4.35;;
26377;SDS011;14078;50.974;6.786;2022-07-21T11:13:02;5.32;;;4.53;;
26377;SDS011;14078;50.974;6.786;2022-07-21T11:18:21;6.97;;;4.97;;
26377;SDS011;14078;50.974;6.786;2022-07-21T11:21:05;5.82;;;5.28;;
26377;SDS011;14078;50.974;6.786;2022-07-21T11:23:34;7.95;;;5.85;;
26377;SDS011;14078;50.974;6.786;2022-07-21T11:26:02;6.88;;;6.15;;
26377;SDS011;14078;50.974;6.786;2022-07-21T11:28:28;8.32;;;6.50;;
26377;SDS011;14078;50.974;6.786;2022-07-21T11:31:05;9.60;;;7.07;;
26377;SDS011;14078;50.974;6.786;2022-07-21T11:33:32;8.85;;;5.63;;
26377;SDS011;14078;50.974;6.786;2022-07-21T11:36:01;8.77;;;6.10;;
26377;SDS011;14078;50.974;6.786;2022-07-21T11:38:29;10.23;;;6.18;;
26377;SDS011;14078;50.974;6.786;2022-07-21T11:41:11;8.90;;;6.25;;
26377;SDS011;14078;50.974;6.786;2022-07-21T11:43:39;8.63;;;6.07;;
26377;SDS011;14078;50.974;6.786;2022-07-21T11:46:07;9.65;;;6.15;;
26377;SDS011;14078;50.974;6.786;2022-07-21T11:48:33;6.97;;;5.45;;
26377;SDS011;14078;50.974;6.786;2022-07-21T11:51:00;11.52;;;5.78;;
26377;SDS011;14078;50.974;6.786;2022-07-21T11:53:29;9.20;;;7.18;;
26377;SDS011;14078;50.974;6.786;2022-07-21T11:55:56;8.88;;;5.30;;
26377;SDS011;14078;50.974;6.786;2022-07-21T11:58:22;7.47;;;6.25;;
26377;SDS011;14078;50.974;6.786;2022-07-21T12:01:02;9.27;;;6.13;;
26377;SDS011;14078;50.974;6.786;2022-07-21T12:03:30;6.00;;;4.75;;
26377;SDS011;14078;50.974;6.786;2022-07-21T12:05:56;6.10;;;4.65;;
26377;SDS011;14078;50.974;6.786;2022-07-21T12:08:24;6.13;;;5.15;;
26377;SDS011;14078;50.974;6.786;2022-07-21T12:11:04;6.97;;;5.60;;
26377;SDS011;14078;50.974;6.786;2022-07-21T12:16:13;6.55;;;5.55;;
26377;SDS011;14078;50.974;6.786;2022-07-21T12:18:39;10.15;;;5.93;;
26377;SDS011;14078;50.974;6.786;2022-07-21T12:21:06;8.07;;;5.85;;
26377;SDS011;14078;50.974;6.786;2022-07-21T12:23:33;9.63;;;6.20;;
26377;SDS011;14078;50.974;6.786;2022-07-21T12:26:02;7.32;;;5.90;;
26377;SDS011;14078;50.974;6.786;2022-07-21T12:28:43;8.55;;;5.65;;
26377;SDS011;14078;50.974;6.786;2022-07-21T12:31:12;8.68;;;6.10;;
26377;SDS011;14078;50.974;6.786;2022-07-21T12:33:41;8.38;;;6.20;;
26377;SDS011;14078;50.974;6.786;2022-07-21T12:36:09;8.50;;;5.65;;
26377;SDS011;14078;50.974;6.786;2022-07-21T12:38:36;8.30;;;5.45;;
26377;SDS011;14078;50.974;6.786;2022-07-21T12:41:03;9.25;;;6.22;;
26377;SDS011;14078;50.974;6.786;2022-07-21T12:43:30;10.23;;;6.13;;
26377;SDS011;14078;50.974;6.786;2022-07-21T12:45:59;10.40;;;6.65;;
26377;SDS011;14078;50.974;6.786;2022-07-21T12:51:07;10.25;;;6.72;;
26377;SDS011;14078;50.974;6.786;2022-07-21T12:53:38;11.32;;;7.20;;
26377;SDS011;14078;50.974;6.786;2022-07-21T12:56:07;9.50;;;7.15;;
26377;SDS011;14078;50.974;6.786;2022-07-21T12:58:35;9.75;;;7.60;;
26377;SDS011;14078;50.974;6.786;2022-07-21T13:01:04;11.70;;;6.68;;
26377;SDS011;14078;50.974;6.786;2022-07-21T13:03:31;9.50;;;7.30;;
26377;SDS011;14078;50.974;6.786;2022-07-21T13:05:59;12.63;;;8.15;;
26377;SDS011;14078;50.974;6.786;2022-07-21T13:08:27;11.80;;;7.60;;
26377;SDS011;14078;50.974;6.786;2022-07-21T13:10:54;10.98;;;8.20;;
26377;SDS011;14078;50.974;6.786;2022-07-21T13:13:21;9.85;;;7.25;;
26377;SDS011;14078;50.974;6.786;2022-07-21T13:15:48;8.85;;;6.97;;
26377;SDS011;14078;50.974;6.786;2022-07-21T13:18:16;10.20;;;7.55;;
26377;SDS011;14078;50.974;6.786;2022-07-21T13:20:43;9.07;;;6.72;;
26377;SDS011;14078;50.974;6.786;2022-07-21T13:23:09;9.65;;;7.03;;
26377;SDS011;14078;50.974;6.786;2022-07-21T13:25:36;11.57;;;6.88;;
26377;SDS011;14078;50.974;6.786;2022-07-21T13:28:03;11.98;;;6.68;;
26377;SDS011;14078;50.974;6.786;2022-07-21T13:30:30;7.15;;;5.20;;
26377;SDS011;14078;50.974;6.786;2022-07-21T13:32:56;5.30;;;4.43;;
26377;SDS011;14078;50.974;6.786;2022-07-21T13:35:24;5.80;;;4.25;;
26377;SDS011;14078;50.974;6.786;2022-07-21T13:37:51;7.43;;;4.57;;
26377;SDS011;14078;50.974;6.786;2022-07-21T13:40:18;5.30;;;4.28;;
26377;SDS011;14078;50.974;6.786;2022-07-21T13:42:45;6.28;;;3.40;;
26377;SDS011;14078;50.974;6.786;2022-07-21T13:45:12;4.82;;;3.47;;
26377;SDS011;14078;50.974;6.786;2022-07-21T13:47:39;4.50;;;3.60;;
26377;SDS011;14078;50.974;6.786;2022-07-21T13:50:06;4.90;;;3.92;;
26377;SDS011;14078;50.974;6.786;2022-07-21T13:52:34;6.75;;;3.53;;
26377;SDS011;14078;50.974;6.786;2022-07-21T13:55:02;5.15;;;3.50;;
26377;SDS011;14078;50.974;6.786;2022-07-21T13:57:29;6.90;;;4.47;;
26377;SDS011;14078;50.974;6.786;2022-07-21T13:59:56;5.00;;;4.07;;
26377;SDS011;14078;50.974;6.786;2022-07-21T14:02:23;6.93;;;4.45;;
26377;SDS011;14078;50.974;6.786;2022-07-21T14:04:49;8.02;;;5.60;;
26377;SDS011;14078;50.974;6.786;2022-07-21T14:07:16;6.85;;;5.28;;
26377;SDS011;14078;50.974;6.786;2022-07-21T14:09:44;6.35;;;4.90;;
26377;SDS011;14078;50.974;6.786;2022-07-21T14:12:11;7.07;;;5.15;;
26377;SDS011;14078;50.974;6.786;2022-07-21T14:14:37;7.97;;;5.63;;
26377;SDS011;14078;50.974;6.786;2022-07-21T14:17:05;6.72;;;5.60;;
26377;SDS011;14078;50.974;6.786;2022-07-21T14:19:32;7.32;;;5.28;;
26377;SDS011;14078;50.974;6.786;2022-07-21T14:21:58;5.95;;;5.05;;
26377;SDS011;14078;50.974;6.786;2022-07-21T14:24:25;6.95;;;5.40;;
26377;SDS011;14078;50.974;6.786;2022-07-21T14:27:11;6.38;;;5.40;;
26377;SDS011;14078;50.974;6.786;2022-07-21T14:29:37;9.77;;;5.15;;
26377;SDS011;14078;50.974;6.786;2022-07-21T14:32:04;7.40;;;4.88;;
26377;SDS011;14078;50.974;6.786;2022-07-21T14:34:31;7.15;;;5.32;;
26377;SDS011;14078;50.974;6.786;2022-07-21T14:36:58;4.20;;;3.75;;
26377;SDS011;14078;50.974;6.786;2022-07-21T14:39:24;7.45;;;3.65;;
26377;SDS011;14078;50.974;6.786;2022-07-21T14:41:51;2.92;;;2.58;;
26377;SDS011;14078;50.974;6.786;2022-07-21T14:44:19;3.45;;;2.97;;
26377;SDS011;14078;50.974;6.786;2022-07-21T14:46:46;2.90;;;2.60;;
26377;SDS011;14078;50.974;6.786;2022-07-21T14:49:13;2.80;;;2.47;;
26377;SDS011;14078;50.974;6.786;2022-07-21T14:51:39;4.63;;;3.05;;
26377;SDS011;14078;50.974;6.786;2022-07-21T14:54:06;5.28;;;3.88;;
26377;SDS011;14078;50.974;6.786;2022-07-21T14:56:33;6.20;;;3.72;;
26377;SDS011;14078;50.974;6.786;2022-07-21T14:58:59;3.47;;;3.17;;
26377;SDS011;14078;50.974;6.786;2022-07-21T15:01:27;6.10;;;3.97;;
26377;SDS011;14078;50.974;6.786;2022-07-21T15:03:54;4.03;;;3.60;;
26377;SDS011;14078;50.974;6.786;2022-07-21T15:06:21;6.65;;;3.53;;
26377;SDS011;14078;50.974;6.786;2022-07-21T15:08:47;4.28;;;3.70;;
26377;SDS011;14078;50.974;6.786;2022-07-21T15:11:14;3.63;;;3.22;;
26377;SDS011;14078;50.974;6.786;2022-07-21T15:13:42;4.25;;;2.85;;
26377;SDS011;14078;50.974;6.786;2022-07-21T15:16:09;4.40;;;3.17;;
26377;SDS011;14078;50.974;6.786;2022-07-21T15:18:37;3.30;;;2.67;;
26377;SDS011;14078;50.974;6.786;2022-07-21T15:21:05;2.90;;;2.70;;
26377;SDS011;14078;50.974;6.786;2022-07-21T15:23:32;3.47;;;3.10;;
26377;SDS011;14078;50.974;6.786;2022-07-21T15:25:59;4.50;;;3.35;;
26377;SDS011;14078;50.974;6.786;2022-07-21T15:28:25;2.97;;;2.25;;
26377;SDS011;14078;50.974;6.786;2022-07-21T15:30:52;3.70;;;3.05;;